sensor_id;sensor_type;location;lat;lon;timestamp;pressure;altitude;pressure_sealevel;temperature;humidity
59767;BME280;46248;58.364;25.582;2022-07-29T00:01:53;101054.72;;;12.14;83.64
59767;BME280;46248;58.364;25.582;2022-07-29T00:05:15;101052.41;;;12.08;83.26
59767;BME280;46248;58.364;25.582;2022-07-29T00:08:37;101052.59;;;12.04;83.51
59767;BME280;46248;58.364;25.582;2022-07-29T00:12:00;101029.69;;;11.90;82.98
59767;BME280;46248;58.364;25.582;2022-07-29T00:15:23;101045.34;;;11.91;83.08
59767;BME280;46248;58.364;25.582;2022-07-29T00:18:46;101045.69;;;11.84;83.75
59767;BME280;46248;58.364;25.582;2022-07-29T00:22:08;101044.25;;;11.77;83.40
59767;BME280;46248;58.364;25.582;2022-07-29T00:25:30;101043.84;;;11.67;83.34
59767;BME280;46248;58.364;25.582;2022-07-29T00:28:53;101033.94;;;11.55;83.69
59767;BME280;46248;58.364;25.582;2022-07-29T00:32:36;101047.91;;;11.55;83.93
59767;BME280;46248;58.364;25.582;2022-07-29T00:35:58;101050.75;;;11.51;84.05
59767;BME280;46248;58.364;25.582;2022-07-29T00:39:20;101052.81;;;11.44;84.12
59767;BME280;46248;58.364;25.582;2022-07-29T00:42:43;101057.31;;;11.40;84.12
59767;BME280;46248;58.364;25.582;2022-07-29T00:46:05;101043.75;;;11.32;84.48
59767;BME280;46248;58.364;25.582;2022-07-29T00:49:28;101061.25;;;11.32;84.29
59767;BME280;46248;58.364;25.582;2022-07-29T00:52:51;101063.13;;;11.28;84.21
59767;BME280;46248;58.364;25.582;2022-07-29T00:56:13;101024.16;;;11.02;84.43
59767;BME280;46248;58.364;25.582;2022-07-29T00:59:35;101074.03;;;11.19;84.36
59767;BME280;46248;58.364;25.582;2022-07-29T01:02:57;101061.44;;;11.08;84.09
59767;BME280;46248;58.364;25.582;2022-07-29T01:06:23;101056.66;;;10.97;84.23
59767;BME280;46248;58.364;25.582;2022-07-29T01:09:46;101076.34;;;11.06;84.46
59767;BME280;46248;58.364;25.582;2022-07-29T01:13:09;101073.97;;;11.02;84.61
59767;BME280;46248;58.364;25.582;2022-07-29T01:16:33;101066.41;;;10.94;84.81
59767;BME280;46248;58.364;25.582;2022-07-29T01:20:04;101065.63;;;10.92;84.59
59767;BME280;46248;58.364;25.582;2022-07-29T01:23:45;101069.44;;;10.85;85.06
59767;BME280;46248;58.364;25.582;2022-07-29T01:27:22;101070.28;;;10.85;85.41
59767;BME280;46248;58.364;25.582;2022-07-29T01:30:51;101066.09;;;10.81;85.37
59767;BME280;46248;58.364;25.582;2022-07-29T01:34:21;101066.25;;;10.78;85.70
59767;BME280;46248;58.364;25.582;2022-07-29T01:37:50;101071.47;;;10.78;85.48
59767;BME280;46248;58.364;25.582;2022-07-29T01:41:16;101064.03;;;10.69;85.59
59767;BME280;46248;58.364;25.582;2022-07-29T01:44:43;101047.13;;;10.55;85.57
59767;BME280;46248;58.364;25.582;2022-07-29T01:48:13;101081.44;;;10.70;85.64
59767;BME280;46248;58.364;25.582;2022-07-29T01:51:38;101088.56;;;10.66;85.91
59767;BME280;46248;58.364;25.582;2022-07-29T01:55:06;101080.25;;;10.57;85.51
59767;BME280;46248;58.364;25.582;2022-07-29T01:58:31;101078.75;;;10.51;85.13
59767;BME280;46248;58.364;25.582;2022-07-29T02:01:57;101083.97;;;10.51;85.35
59767;BME280;46248;58.364;25.582;2022-07-29T02:05:22;101091.13;;;10.47;85.32
59767;BME280;46248;58.364;25.582;2022-07-29T02:08:46;101092.13;;;10.43;84.95
59767;BME280;46248;58.364;25.582;2022-07-29T02:12:10;101094.97;;;10.39;85.12
59767;BME280;46248;58.364;25.582;2022-07-29T02:15:34;101083.22;;;10.27;85.11
59767;BME280;46248;58.364;25.582;2022-07-29T02:18:58;101094.38;;;10.32;85.48
59767;BME280;46248;58.364;25.582;2022-07-29T02:22:24;101092.84;;;10.26;85.36
59767;BME280;46248;58.364;25.582;2022-07-29T02:25:49;101093.00;;;10.22;85.34
59767;BME280;46248;58.364;25.582;2022-07-29T02:29:13;101095.84;;;10.16;85.32
59767;BME280;46248;58.364;25.582;2022-07-29T02:32:38;101083.94;;;10.08;85.46
59767;BME280;46248;58.364;25.582;2022-07-29T02:36:02;101092.63;;;10.09;85.65
59767;BME280;46248;58.364;25.582;2022-07-29T02:39:27;101096.19;;;10.08;85.80
59767;BME280;46248;58.364;25.582;2022-07-29T02:42:50;101086.84;;;10.01;85.72
59767;BME280;46248;58.364;25.582;2022-07-29T02:46:18;101094.66;;;10.02;85.53
59767;BME280;46248;58.364;25.582;2022-07-29T02:49:53;101093.00;;;10.00;85.71
59767;BME280;46248;58.364;25.582;2022-07-29T02:53:18;101098.16;;;10.01;85.96
59767;BME280;46248;58.364;25.582;2022-07-29T02:56:44;101093.97;;;9.97;85.92
59767;BME280;46248;58.364;25.582;2022-07-29T03:00:09;101089.00;;;9.91;85.85
59767;BME280;46248;58.364;25.582;2022-07-29T03:03:34;101101.03;;;9.95;86.07
59767;BME280;46248;58.364;25.582;2022-07-29T03:06:59;101097.88;;;9.87;86.29
59767;BME280;46248;58.364;25.582;2022-07-29T03:10:22;101104.63;;;9.93;86.42
59767;BME280;46248;58.364;25.582;2022-07-29T03:13:46;101100.25;;;9.93;86.36
59767;BME280;46248;58.364;25.582;2022-07-29T03:17:09;101105.41;;;9.95;86.50
59767;BME280;46248;58.364;25.582;2022-07-29T03:20:31;101115.50;;;10.04;86.80
59767;BME280;46248;58.364;25.582;2022-07-29T03:23:54;101108.66;;;10.23;86.77
59767;BME280;46248;58.364;25.582;2022-07-29T03:27:16;101115.31;;;10.52;85.88
59767;BME280;46248;58.364;25.582;2022-07-29T03:30:39;101118.69;;;10.76;84.59
59767;BME280;46248;58.364;25.582;2022-07-29T03:34:04;101114.25;;;10.99;83.62
59767;BME280;46248;58.364;25.582;2022-07-29T03:37:25;101116.75;;;11.21;82.90
59767;BME280;46248;58.364;25.582;2022-07-29T03:40:51;101110.66;;;11.41;82.05
59767;BME280;46248;58.364;25.582;2022-07-29T03:44:15;101114.44;;;11.53;80.70
59767;BME280;46248;58.364;25.582;2022-07-29T03:47:43;101113.91;;;11.65;80.33
59767;BME280;46248;58.364;25.582;2022-07-29T03:51:10;101114.09;;;11.79;80.25
59767;BME280;46248;58.364;25.582;2022-07-29T03:54:32;101119.31;;;12.00;79.17
59767;BME280;46248;58.364;25.582;2022-07-29T03:57:57;101128.22;;;12.14;78.83
59767;BME280;46248;58.364;25.582;2022-07-29T04:01:20;101123.88;;;12.32;78.32
59767;BME280;46248;58.364;25.582;2022-07-29T04:04:44;101119.47;;;12.50;77.38
59767;BME280;46248;58.364;25.582;2022-07-29T04:08:05;101126.03;;;12.76;77.05
59767;BME280;46248;58.364;25.582;2022-07-29T04:11:27;101128.75;;;12.92;76.30
59767;BME280;46248;58.364;25.582;2022-07-29T04:14:49;101131.13;;;13.14;74.93
59767;BME280;46248;58.364;25.582;2022-07-29T04:18:11;101128.41;;;13.33;74.93
59767;BME280;46248;58.364;25.582;2022-07-29T04:21:38;101135.06;;;13.56;74.41
59767;BME280;46248;58.364;25.582;2022-07-29T04:25:00;101118.34;;;13.57;73.93
59767;BME280;46248;58.364;25.582;2022-07-29T04:28:23;101133.13;;;13.75;73.36
59767;BME280;46248;58.364;25.582;2022-07-29T04:31:46;101127.78;;;13.93;73.19
59767;BME280;46248;58.364;25.582;2022-07-29T04:35:08;101133.66;;;14.14;72.59
59767;BME280;46248;58.364;25.582;2022-07-29T04:38:31;101137.38;;;14.26;72.04
59767;BME280;46248;58.364;25.582;2022-07-29T04:41:53;101132.44;;;14.35;71.79
59767;BME280;46248;58.364;25.582;2022-07-29T04:45:16;101145.78;;;14.32;72.10
59767;BME280;46248;58.364;25.582;2022-07-29T04:48:42;101141.63;;;14.28;71.57
59767;BME280;46248;58.364;25.582;2022-07-29T04:52:05;101137.69;;;14.35;71.71
59767;BME280;46248;58.364;25.582;2022-07-29T04:55:28;101148.16;;;14.53;71.89
59767;BME280;46248;58.364;25.582;2022-07-29T04:58:50;101144.97;;;14.46;70.91
59767;BME280;46248;58.364;25.582;2022-07-29T05:02:13;101147.97;;;14.24;71.28
59767;BME280;46248;58.364;25.582;2022-07-29T05:05:34;101147.50;;;14.17;72.38
59767;BME280;46248;58.364;25.582;2022-07-29T05:08:56;101145.44;;;14.23;71.46
59767;BME280;46248;58.364;25.582;2022-07-29T05:12:20;101145.25;;;14.41;70.71
59767;BME280;46248;58.364;25.582;2022-07-29T05:15:42;101127.28;;;14.48;69.99
59767;BME280;46248;58.364;25.582;2022-07-29T05:19:04;101151.59;;;14.69;70.66
59767;BME280;46248;58.364;25.582;2022-07-29T05:22:33;101149.19;;;14.80;70.28
59767;BME280;46248;58.364;25.582;2022-07-29T05:25:55;101148.34;;;14.94;70.94
59767;BME280;46248;58.364;25.582;2022-07-29T05:29:18;101136.31;;;15.04;69.94
59767;BME280;46248;58.364;25.582;2022-07-29T05:33:00;101130.66;;;15.25;69.54
59767;BME280;46248;58.364;25.582;2022-07-29T05:36:22;101140.59;;;15.35;69.08
59767;BME280;46248;58.364;25.582;2022-07-29T05:39:43;101149.34;;;15.50;69.30
59767;BME280;46248;58.364;25.582;2022-07-29T05:43:08;101148.66;;;15.61;69.18
59767;BME280;46248;58.364;25.582;2022-07-29T05:46:31;101155.34;;;15.67;69.14
59767;BME280;46248;58.364;25.582;2022-07-29T05:49:53;101140.69;;;15.77;68.51
59767;BME280;46248;58.364;25.582;2022-07-29T05:53:15;101151.50;;;15.87;68.44
59767;BME280;46248;58.364;25.582;2022-07-29T05:56:39;101152.72;;;15.95;68.69
59767;BME280;46248;58.364;25.582;2022-07-29T06:00:02;101145.06;;;16.05;68.76
59767;BME280;46248;58.364;25.582;2022-07-29T06:03:25;101155.59;;;16.19;68.16
59767;BME280;46248;58.364;25.582;2022-07-29T06:06:48;101148.09;;;16.26;67.70
59767;BME280;46248;58.364;25.582;2022-07-29T06:10:10;101154.06;;;16.42;67.29
59767;BME280;46248;58.364;25.582;2022-07-29T06:13:31;101149.69;;;16.56;66.61
59767;BME280;46248;58.364;25.582;2022-07-29T06:16:53;101147.28;;;16.65;66.97
59767;BME280;46248;58.364;25.582;2022-07-29T06:20:17;101147.44;;;16.49;66.62
59767;BME280;46248;58.364;25.582;2022-07-29T06:23:46;101157.03;;;16.38;67.03
59767;BME280;46248;58.364;25.582;2022-07-29T06:27:08;101169.72;;;16.45;67.06
59767;BME280;46248;58.364;25.582;2022-07-29T06:30:30;101164.81;;;16.66;67.07
59767;BME280;46248;58.364;25.582;2022-07-29T06:33:52;101163.50;;;16.74;65.98
59767;BME280;46248;58.364;25.582;2022-07-29T06:37:16;101158.59;;;16.94;64.35
59767;BME280;46248;58.364;25.582;2022-07-29T06:40:41;101167.47;;;17.06;64.84
59767;BME280;46248;58.364;25.582;2022-07-29T06:44:21;101163.25;;;17.16;64.06
59767;BME280;46248;58.364;25.582;2022-07-29T06:47:43;101166.94;;;17.01;64.57
59767;BME280;46248;58.364;25.582;2022-07-29T06:51:06;101159.63;;;17.17;64.51
59767;BME280;46248;58.364;25.582;2022-07-29T06:54:29;101163.59;;;17.25;63.82
59767;BME280;46248;58.364;25.582;2022-07-29T06:57:51;101160.72;;;17.40;63.79
59767;BME280;46248;58.364;25.582;2022-07-29T07:01:13;101154.88;;;17.61;59.97
59767;BME280;46248;58.364;25.582;2022-07-29T07:04:35;101156.44;;;17.76;60.45
59767;BME280;46248;58.364;25.582;2022-07-29T07:08:00;101164.59;;;17.60;59.95
59767;BME280;46248;58.364;25.582;2022-07-29T07:11:23;101168.13;;;17.35;61.19
59767;BME280;46248;58.364;25.582;2022-07-29T07:14:45;101163.97;;;17.06;60.96
59767;BME280;46248;58.364;25.582;2022-07-29T07:18:08;101160.06;;;16.86;62.33
59767;BME280;46248;58.364;25.582;2022-07-29T07:21:30;101169.19;;;17.07;61.88
59767;BME280;46248;58.364;25.582;2022-07-29T07:24:55;101172.13;;;17.54;61.32
59767;BME280;46248;58.364;25.582;2022-07-29T07:28:19;101170.75;;;17.61;60.24
59767;BME280;46248;58.364;25.582;2022-07-29T07:31:44;101155.50;;;17.39;60.09
59767;BME280;46248;58.364;25.582;2022-07-29T07:35:07;101139.00;;;17.10;60.38
59767;BME280;46248;58.364;25.582;2022-07-29T07:38:30;101165.44;;;17.48;61.60
59767;BME280;46248;58.364;25.582;2022-07-29T07:41:52;101166.09;;;17.52;59.54
59767;BME280;46248;58.364;25.582;2022-07-29T07:45:15;101167.28;;;17.35;61.26
59767;BME280;46248;58.364;25.582;2022-07-29T07:48:37;101174.47;;;17.07;62.13
59767;BME280;46248;58.364;25.582;2022-07-29T07:51:59;101178.84;;;16.81;62.18
59767;BME280;46248;58.364;25.582;2022-07-29T07:55:21;101170.72;;;16.84;63.64
59767;BME280;46248;58.364;25.582;2022-07-29T07:58:43;101178.28;;;17.16;62.90
59767;BME280;46248;58.364;25.582;2022-07-29T08:02:08;101162.50;;;17.53;61.78
59767;BME280;46248;58.364;25.582;2022-07-29T08:05:30;101160.72;;;18.03;60.46
59767;BME280;46248;58.364;25.582;2022-07-29T08:08:53;101167.91;;;18.38;60.33
59767;BME280;46248;58.364;25.582;2022-07-29T08:12:16;101155.41;;;18.40;58.62
59767;BME280;46248;58.364;25.582;2022-07-29T08:15:39;101168.91;;;18.24;60.18
59767;BME280;46248;58.364;25.582;2022-07-29T08:19:03;101183.75;;;17.90;60.83
59767;BME280;46248;58.364;25.582;2022-07-29T08:22:25;101186.75;;;17.59;61.50
59767;BME280;46248;58.364;25.582;2022-07-29T08:25:47;101192.91;;;17.34;62.64
59767;BME280;46248;58.364;25.582;2022-07-29T08:29:10;101190.25;;;17.22;62.57
59767;BME280;46248;58.364;25.582;2022-07-29T08:32:39;101182.91;;;17.12;62.80
59767;BME280;46248;58.364;25.582;2022-07-29T08:36:14;101196.47;;;17.08;63.02
59767;BME280;46248;58.364;25.582;2022-07-29T08:39:37;101190.75;;;17.01;62.55
59767;BME280;46248;58.364;25.582;2022-07-29T08:43:03;101194.59;;;17.10;62.47
59767;BME280;46248;58.364;25.582;2022-07-29T08:46:26;101207.69;;;17.24;62.37
59767;BME280;46248;58.364;25.582;2022-07-29T08:49:48;101208.56;;;17.25;61.70
59767;BME280;46248;58.364;25.582;2022-07-29T08:53:13;101200.22;;;17.44;62.45
59767;BME280;46248;58.364;25.582;2022-07-29T08:56:36;101209.59;;;17.99;61.25
59767;BME280;46248;58.364;25.582;2022-07-29T09:00:00;101188.88;;;18.17;60.81
59767;BME280;46248;58.364;25.582;2022-07-29T09:03:32;101205.69;;;18.28;60.17
59767;BME280;46248;58.364;25.582;2022-07-29T09:06:57;101205.63;;;18.17;58.81
59767;BME280;46248;58.364;25.582;2022-07-29T09:10:24;101204.81;;;17.91;59.41
59767;BME280;46248;58.364;25.582;2022-07-29T09:13:46;101213.44;;;17.82;59.60
59767;BME280;46248;58.364;25.582;2022-07-29T09:17:10;101199.97;;;17.72;59.18
59767;BME280;46248;58.364;25.582;2022-07-29T09:20:32;101206.44;;;17.81;58.63
59767;BME280;46248;58.364;25.582;2022-07-29T09:24:09;101204.44;;;17.84;59.16
59767;BME280;46248;58.364;25.582;2022-07-29T09:27:33;101199.75;;;17.88;59.06
59767;BME280;46248;58.364;25.582;2022-07-29T09:30:57;101207.78;;;17.99;59.47
59767;BME280;46248;58.364;25.582;2022-07-29T09:34:24;101201.19;;;18.42;59.41
59767;BME280;46248;58.364;25.582;2022-07-29T09:37:49;101202.84;;;18.80;57.02
59767;BME280;46248;58.364;25.582;2022-07-29T09:41:11;101193.69;;;18.84;56.24
59767;BME280;46248;58.364;25.582;2022-07-29T09:44:46;101203.53;;;18.58;55.24
59767;BME280;46248;58.364;25.582;2022-07-29T09:48:16;101198.91;;;18.48;55.51
59767;BME280;46248;58.364;25.582;2022-07-29T09:51:38;101197.06;;;18.38;56.34
59767;BME280;46248;58.364;25.582;2022-07-29T09:55:05;101186.31;;;18.28;57.07
59767;BME280;46248;58.364;25.582;2022-07-29T09:58:27;101192.50;;;18.40;57.21
59767;BME280;46248;58.364;25.582;2022-07-29T10:01:52;101180.19;;;18.39;57.11
59767;BME280;46248;58.364;25.582;2022-07-29T10:05:20;101192.22;;;18.56;57.59
59767;BME280;46248;58.364;25.582;2022-07-29T10:08:42;101195.66;;;18.69;57.19
59767;BME280;46248;58.364;25.582;2022-07-29T10:12:06;101161.06;;;18.70;56.95
59767;BME280;46248;58.364;25.582;2022-07-29T10:15:31;101190.13;;;19.07;56.63
59767;BME280;46248;58.364;25.582;2022-07-29T10:18:55;101188.81;;;19.24;56.66
59767;BME280;46248;58.364;25.582;2022-07-29T10:22:17;101193.63;;;19.08;57.19
59767;BME280;46248;58.364;25.582;2022-07-29T10:26:00;101200.19;;;18.56;60.57
59767;BME280;46248;58.364;25.582;2022-07-29T10:29:22;101216.22;;;18.17;60.96
59767;BME280;46248;58.364;25.582;2022-07-29T10:32:56;101198.06;;;17.74;60.91
59767;BME280;46248;58.364;25.582;2022-07-29T10:36:44;101209.72;;;17.59;61.68
59767;BME280;46248;58.364;25.582;2022-07-29T10:40:17;101194.25;;;17.78;57.92
59767;BME280;46248;58.364;25.582;2022-07-29T10:44:06;101196.44;;;18.10;59.04
59767;BME280;46248;58.364;25.582;2022-07-29T10:47:36;101194.53;;;18.36;56.16
59767;BME280;46248;58.364;25.582;2022-07-29T10:51:00;101170.66;;;18.36;55.84
59767;BME280;46248;58.364;25.582;2022-07-29T10:54:47;101199.03;;;18.95;56.71
59767;BME280;46248;58.364;25.582;2022-07-29T10:58:15;101198.59;;;19.23;54.62
59767;BME280;46248;58.364;25.582;2022-07-29T11:01:38;101193.66;;;19.30;54.20
59767;BME280;46248;58.364;25.582;2022-07-29T11:05:10;101195.63;;;19.62;55.20
59767;BME280;46248;58.364;25.582;2022-07-29T11:08:33;101188.53;;;19.74;55.13
59767;BME280;46248;58.364;25.582;2022-07-29T11:11:56;101197.94;;;19.78;55.03
59767;BME280;46248;58.364;25.582;2022-07-29T11:15:21;101205.19;;;19.76;55.82
59767;BME280;46248;58.364;25.582;2022-07-29T11:19:21;101196.63;;;19.61;54.38
59767;BME280;46248;58.364;25.582;2022-07-29T11:23:18;101192.97;;;19.51;53.58
59767;BME280;46248;58.364;25.582;2022-07-29T11:26:41;101189.00;;;19.34;53.30
59767;BME280;46248;58.364;25.582;2022-07-29T11:30:07;101151.59;;;18.90;52.79
59767;BME280;46248;58.364;25.582;2022-07-29T11:33:31;101181.19;;;19.08;50.68
59767;BME280;46248;58.364;25.582;2022-07-29T11:37:18;101179.53;;;19.07;52.32
59767;BME280;46248;58.364;25.582;2022-07-29T11:41:21;101186.09;;;19.37;52.91
59767;BME280;46248;58.364;25.582;2022-07-29T11:44:56;101187.91;;;19.59;51.55
59767;BME280;46248;58.364;25.582;2022-07-29T11:48:43;101183.09;;;19.75;52.56
59767;BME280;46248;58.364;25.582;2022-07-29T11:52:05;101197.72;;;19.70;49.71
59767;BME280;46248;58.364;25.582;2022-07-29T11:55:31;101199.59;;;19.45;50.64
59767;BME280;46248;58.364;25.582;2022-07-29T11:59:11;101196.47;;;19.51;51.47
59767;BME280;46248;58.364;25.582;2022-07-29T12:02:41;101202.50;;;19.53;50.65
59767;BME280;46248;58.364;25.582;2022-07-29T12:06:13;101187.88;;;19.25;52.08
59767;BME280;46248;58.364;25.582;2022-07-29T12:09:37;101204.75;;;19.24;52.23
59767;BME280;46248;58.364;25.582;2022-07-29T12:13:01;101216.25;;;19.25;50.45
59767;BME280;46248;58.364;25.582;2022-07-29T12:16:22;101204.16;;;19.09;51.81
59767;BME280;46248;58.364;25.582;2022-07-29T12:19:49;101205.03;;;18.86;51.52
59767;BME280;46248;58.364;25.582;2022-07-29T12:23:14;101213.09;;;18.84;52.45
59767;BME280;46248;58.364;25.582;2022-07-29T12:26:49;101195.41;;;18.96;51.82
59767;BME280;46248;58.364;25.582;2022-07-29T12:30:14;101192.78;;;19.07;52.27
59767;BME280;46248;58.364;25.582;2022-07-29T12:33:37;101191.97;;;19.29;52.11
59767;BME280;46248;58.364;25.582;2022-07-29T12:36:59;101200.34;;;19.47;50.91
59767;BME280;46248;58.364;25.582;2022-07-29T12:40:24;101180.66;;;19.50;51.43
59767;BME280;46248;58.364;25.582;2022-07-29T12:43:53;101200.13;;;19.84;49.62
59767;BME280;46248;58.364;25.582;2022-07-29T12:47:15;101208.94;;;19.96;50.26
59767;BME280;46248;58.364;25.582;2022-07-29T12:50:56;101194.25;;;20.24;49.64
59767;BME280;46248;58.364;25.582;2022-07-29T12:54:19;101191.66;;;20.45;49.57
59767;BME280;46248;58.364;25.582;2022-07-29T12:57:46;101197.31;;;20.51;49.73
59767;BME280;46248;58.364;25.582;2022-07-29T13:01:10;101201.84;;;20.40;48.79
59767;BME280;46248;58.364;25.582;2022-07-29T13:04:36;101207.53;;;20.35;46.40
59767;BME280;46248;58.364;25.582;2022-07-29T13:08:10;101211.22;;;20.11;45.69
59767;BME280;46248;58.364;25.582;2022-07-29T13:11:42;101213.75;;;20.02;46.54
59767;BME280;46248;58.364;25.582;2022-07-29T13:15:16;101209.44;;;20.01;45.83
59767;BME280;46248;58.364;25.582;2022-07-29T13:18:38;101203.47;;;20.08;45.73
59767;BME280;46248;58.364;25.582;2022-07-29T13:22:02;101204.31;;;20.09;46.40
59767;BME280;46248;58.364;25.582;2022-07-29T13:25:25;101198.41;;;20.17;47.38
59767;BME280;46248;58.364;25.582;2022-07-29T13:28:47;101200.47;;;20.13;46.62
59767;BME280;46248;58.364;25.582;2022-07-29T13:32:12;101203.47;;;20.20;46.65
59767;BME280;46248;58.364;25.582;2022-07-29T13:35:34;101188.00;;;20.25;44.85
59767;BME280;46248;58.364;25.582;2022-07-29T13:38:59;101201.22;;;20.36;45.94
59767;BME280;46248;58.364;25.582;2022-07-29T13:42:23;101199.97;;;20.51;46.96
59767;BME280;46248;58.364;25.582;2022-07-29T13:45:45;101191.22;;;20.72;46.46
59767;BME280;46248;58.364;25.582;2022-07-29T13:49:09;101203.66;;;21.03;46.39
59767;BME280;46248;58.364;25.582;2022-07-29T13:52:31;101207.69;;;20.98;46.75
59767;BME280;46248;58.364;25.582;2022-07-29T13:55:54;101196.88;;;20.57;46.95
59767;BME280;46248;58.364;25.582;2022-07-29T13:59:16;101202.72;;;20.29;46.86
59767;BME280;46248;58.364;25.582;2022-07-29T14:02:38;101202.06;;;19.93;46.33
59767;BME280;46248;58.364;25.582;2022-07-29T14:06:01;101207.25;;;19.72;47.95
59767;BME280;46248;58.364;25.582;2022-07-29T14:09:23;101204.31;;;19.53;47.62
59767;BME280;46248;58.364;25.582;2022-07-29T14:12:45;101213.50;;;19.37;48.33
59767;BME280;46248;58.364;25.582;2022-07-29T14:16:07;101210.56;;;19.29;47.89
59767;BME280;46248;58.364;25.582;2022-07-29T14:19:30;101193.19;;;19.25;48.93
59767;BME280;46248;58.364;25.582;2022-07-29T14:22:57;101198.53;;;19.59;48.36
59767;BME280;46248;58.364;25.582;2022-07-29T14:26:19;101206.03;;;19.87;47.67
59767;BME280;46248;58.364;25.582;2022-07-29T14:29:43;101209.44;;;20.01;47.43
59767;BME280;46248;58.364;25.582;2022-07-29T14:33:05;101209.91;;;19.95;48.16
59767;BME280;46248;58.364;25.582;2022-07-29T14:36:27;101201.56;;;19.99;48.68
59767;BME280;46248;58.364;25.582;2022-07-29T14:39:50;101198.97;;;20.20;48.09
59767;BME280;46248;58.364;25.582;2022-07-29T14:43:14;101206.34;;;20.28;46.92
59767;BME280;46248;58.364;25.582;2022-07-29T14:46:36;101210.09;;;20.25;47.17
59767;BME280;46248;58.364;25.582;2022-07-29T14:49:58;101210.59;;;20.19;47.02
59767;BME280;46248;58.364;25.582;2022-07-29T14:53:20;101211.94;;;20.13;46.16
59767;BME280;46248;58.364;25.582;2022-07-29T14:56:43;101216.16;;;20.16;45.60
59767;BME280;46248;58.364;25.582;2022-07-29T15:00:07;101214.59;;;20.25;46.99
59767;BME280;46248;58.364;25.582;2022-07-29T15:03:30;101210.22;;;20.24;45.06
59767;BME280;46248;58.364;25.582;2022-07-29T15:06:53;101188.75;;;20.04;43.68
59767;BME280;46248;58.364;25.582;2022-07-29T15:10:15;101227.88;;;20.13;45.04
59767;BME280;46248;58.364;25.582;2022-07-29T15:13:39;101219.47;;;19.86;44.63
59767;BME280;46248;58.364;25.582;2022-07-29T15:17:02;101225.75;;;19.74;46.50
59767;BME280;46248;58.364;25.582;2022-07-29T15:20:24;101219.09;;;19.68;47.66
59767;BME280;46248;58.364;25.582;2022-07-29T15:23:47;101234.44;;;19.64;47.87
59767;BME280;46248;58.364;25.582;2022-07-29T15:27:09;101228.59;;;19.59;48.66
59767;BME280;46248;58.364;25.582;2022-07-29T15:30:36;101240.47;;;19.66;48.47
59767;BME280;46248;58.364;25.582;2022-07-29T15:34:01;101235.34;;;19.63;49.41
59767;BME280;46248;58.364;25.582;2022-07-29T15:37:25;101237.09;;;19.64;49.10
59767;BME280;46248;58.364;25.582;2022-07-29T15:41:08;101250.38;;;19.64;49.92
59767;BME280;46248;58.364;25.582;2022-07-29T15:44:30;101243.25;;;19.65;50.57
59767;BME280;46248;58.364;25.582;2022-07-29T15:47:53;101239.63;;;19.66;50.87
59767;BME280;46248;58.364;25.582;2022-07-29T15:51:15;101246.13;;;19.62;50.37
59767;BME280;46248;58.364;25.582;2022-07-29T15:54:38;101239.94;;;19.50;51.35
59767;BME280;46248;58.364;25.582;2022-07-29T15:58:02;101241.38;;;19.43;51.71
59767;BME280;46248;58.364;25.582;2022-07-29T16:01:24;101245.47;;;19.36;51.93
59767;BME280;46248;58.364;25.582;2022-07-29T16:04:48;101240.63;;;19.30;52.07
59767;BME280;46248;58.364;25.582;2022-07-29T16:08:10;101232.41;;;19.33;52.34
59767;BME280;46248;58.364;25.582;2022-07-29T16:11:32;101233.88;;;19.26;52.34
59767;BME280;46248;58.364;25.582;2022-07-29T16:14:56;101235.78;;;19.23;52.08
59767;BME280;46248;58.364;25.582;2022-07-29T16:18:18;101239.63;;;19.19;52.00
59767;BME280;46248;58.364;25.582;2022-07-29T16:21:50;101240.72;;;19.17;52.41
59767;BME280;46248;58.364;25.582;2022-07-29T16:25:18;101228.75;;;19.11;52.10
59767;BME280;46248;58.364;25.582;2022-07-29T16:28:57;101224.66;;;19.07;53.00
59767;BME280;46248;58.364;25.582;2022-07-29T16:32:20;101226.94;;;19.12;52.66
59767;BME280;46248;58.364;25.582;2022-07-29T16:35:42;101233.13;;;19.12;53.08
59767;BME280;46248;58.364;25.582;2022-07-29T16:39:05;101228.75;;;19.11;52.46
59767;BME280;46248;58.364;25.582;2022-07-29T16:42:27;101233.69;;;19.05;52.88
59767;BME280;46248;58.364;25.582;2022-07-29T16:46:06;101211.78;;;18.90;53.60
59767;BME280;46248;58.364;25.582;2022-07-29T16:49:33;101234.19;;;19.21;53.21
59767;BME280;46248;58.364;25.582;2022-07-29T16:52:55;101232.84;;;19.62;53.34
59767;BME280;46248;58.364;25.582;2022-07-29T16:56:18;101228.88;;;19.90;52.45
59767;BME280;46248;58.364;25.582;2022-07-29T16:59:40;101220.91;;;19.90;51.48
59767;BME280;46248;58.364;25.582;2022-07-29T17:03:03;101232.00;;;19.73;51.96
59767;BME280;46248;58.364;25.582;2022-07-29T17:06:26;101232.72;;;19.52;52.05
59767;BME280;46248;58.364;25.582;2022-07-29T17:09:49;101228.09;;;19.32;52.31
59767;BME280;46248;58.364;25.582;2022-07-29T17:13:16;101215.72;;;19.08;52.55
59767;BME280;46248;58.364;25.582;2022-07-29T17:16:38;101232.84;;;19.04;52.56
59767;BME280;46248;58.364;25.582;2022-07-29T17:20:00;101215.94;;;19.05;52.64
59767;BME280;46248;58.364;25.582;2022-07-29T17:23:23;101227.16;;;19.55;51.97
59767;BME280;46248;58.364;25.582;2022-07-29T17:26:44;101229.44;;;20.27;51.04
59767;BME280;46248;58.364;25.582;2022-07-29T17:30:09;101223.13;;;20.83;50.60
59767;BME280;46248;58.364;25.582;2022-07-29T17:33:30;101228.22;;;21.07;50.23
59767;BME280;46248;58.364;25.582;2022-07-29T17:36:52;101219.75;;;21.23;49.82
59767;BME280;46248;58.364;25.582;2022-07-29T17:40:14;101229.31;;;21.25;49.05